createdAt,value
2023-07-29T00:00:57.786Z,19.40
2023-07-29T00:04:00.306Z,19.37
2023-07-29T00:07:02.623Z,19.32
2023-07-29T00:10:05.481Z,19.30
2023-07-29T00:13:08.594Z,19.23
2023-07-29T00:16:11.217Z,19.21
2023-07-29T00:19:13.595Z,19.15
2023-07-29T00:22:15.888Z,19.17
2023-07-29T00:25:18.169Z,19.15
2023-07-29T00:28:23.427Z,19.18
2023-07-29T00:31:25.979Z,19.17
2023-07-29T00:34:29.736Z,19.19
2023-07-29T00:37:32.017Z,19.21
2023-07-29T00:40:37.327Z,19.27
2023-07-29T00:43:39.650Z,19.14
2023-07-29T00:46:43.110Z,19.02
2023-07-29T00:49:45.891Z,18.89
2023-07-29T00:52:48.378Z,18.93
2023-07-29T00:55:51.666Z,19.05
2023-07-29T00:58:59.857Z,19.14
2023-07-29T01:02:04.412Z,19.34
2023-07-29T01:05:07.991Z,19.42
2023-07-29T01:08:30.151Z,19.44
2023-07-29T01:11:35.552Z,19.45
2023-07-29T01:14:52.237Z,19.42
2023-07-29T01:18:00.243Z,19.37
2023-07-29T01:21:12.186Z,19.33
2023-07-29T01:24:14.488Z,19.26
2023-07-29T01:27:16.921Z,19.29
2023-07-29T01:30:22.620Z,19.26
2023-07-29T01:33:28.124Z,19.22
2023-07-29T01:36:35.540Z,19.22
2023-07-29T01:39:38.120Z,19.22
2023-07-29T01:42:40.378Z,19.06
2023-07-29T01:45:43.083Z,18.79
2023-07-29T01:48:45.808Z,18.65
2023-07-29T01:51:49.932Z,18.50
2023-07-29T01:54:52.194Z,18.32
2023-07-29T01:57:54.533Z,18.25
2023-07-29T02:00:58.090Z,18.20
2023-07-29T02:04:00.553Z,18.14
2023-07-29T02:07:02.854Z,18.11
2023-07-29T02:10:05.759Z,18.11
2023-07-29T02:13:08.098Z,18.08
2023-07-29T02:16:10.396Z,17.99
2023-07-29T02:19:12.921Z,17.95
2023-07-29T02:22:17.338Z,17.82
2023-07-29T02:25:19.670Z,17.82
2023-07-29T02:28:21.991Z,17.74
2023-07-29T02:31:25.986Z,17.69
2023-07-29T02:34:28.616Z,17.66
2023-07-29T02:37:30.932Z,17.62
2023-07-29T02:40:33.266Z,17.61
2023-07-29T02:43:35.584Z,17.53
2023-07-29T02:46:38.066Z,17.43
2023-07-29T02:49:40.716Z,17.34
2023-07-29T02:52:43.001Z,17.33
2023-07-29T02:55:45.299Z,17.22
2023-07-29T02:58:47.612Z,17.24
2023-07-29T03:01:49.917Z,17.25
2023-07-29T03:04:52.318Z,17.25
2023-07-29T03:07:54.988Z,17.20
2023-07-29T03:10:58.389Z,17.24
2023-07-29T03:14:01.940Z,17.21
2023-07-29T03:17:06.127Z,17.25
2023-07-29T03:20:09.083Z,17.42
2023-07-29T03:23:11.335Z,17.55
2023-07-29T03:26:13.692Z,17.60
2023-07-29T03:29:16.029Z,17.68
2023-07-29T03:32:18.332Z,17.62
2023-07-29T03:35:20.587Z,17.54
2023-07-29T03:38:22.862Z,17.50
2023-07-29T03:41:25.176Z,17.51
2023-07-29T03:44:27.460Z,17.61
2023-07-29T03:47:29.778Z,17.70
2023-07-29T03:50:36.148Z,17.72
2023-07-29T03:53:38.586Z,17.75
2023-07-29T03:56:40.924Z,17.72
2023-07-29T03:59:43.196Z,17.74
2023-07-29T04:02:46.890Z,17.70
2023-07-29T04:05:49.653Z,17.69
2023-07-29T04:08:52.172Z,17.72
2023-07-29T04:11:54.490Z,17.77
2023-07-29T04:14:56.803Z,17.87
2023-07-29T04:17:59.160Z,17.94
2023-07-29T04:21:01.804Z,17.93
2023-07-29T04:24:04.329Z,17.91
2023-07-29T04:27:06.882Z,17.93
2023-07-29T04:30:09.678Z,17.98
2023-07-29T04:33:11.908Z,18.06
2023-07-29T04:36:14.264Z,18.15
2023-07-29T04:39:20.264Z,18.29
2023-07-29T04:42:22.704Z,18.32
2023-07-29T04:45:29.934Z,18.46
2023-07-29T04:48:32.262Z,18.62
2023-07-29T04:51:34.853Z,18.78
2023-07-29T04:54:37.169Z,18.97
2023-07-29T04:57:39.487Z,19.13
2023-07-29T05:00:41.806Z,19.42
2023-07-29T05:03:44.837Z,19.69
2023-07-29T05:06:48.167Z,19.79
2023-07-29T05:09:50.502Z,19.87
2023-07-29T05:12:52.836Z,20.10
2023-07-29T05:15:55.785Z,20.42
2023-07-29T05:18:58.130Z,20.81
2023-07-29T05:22:00.371Z,20.92
2023-07-29T05:25:04.385Z,21.09
2023-07-29T05:28:06.788Z,21.25
2023-07-29T05:31:09.088Z,21.38
2023-07-29T05:34:11.837Z,21.60
2023-07-29T05:37:14.936Z,21.91
2023-07-29T05:40:17.661Z,22.15
2023-07-29T05:43:19.978Z,22.55
2023-07-29T05:46:22.311Z,23.00
2023-07-29T05:49:25.059Z,23.62
2023-07-29T05:52:27.357Z,24.18
2023-07-29T05:55:29.636Z,25.10
2023-07-29T05:58:32.413Z,26.98
2023-07-29T06:01:34.685Z,28.43
2023-07-29T06:04:37.005Z,28.92
2023-07-29T06:07:39.379Z,30.12
2023-07-29T06:10:41.745Z,31.36
2023-07-29T06:13:44.109Z,32.00
2023-07-29T06:16:46.399Z,30.56
2023-07-29T06:19:49.024Z,28.29
2023-07-29T06:22:51.299Z,27.56
2023-07-29T06:25:53.564Z,26.67
2023-07-29T06:28:55.857Z,26.19
2023-07-29T06:31:59.656Z,25.96
2023-07-29T06:35:02.081Z,26.65
2023-07-29T06:38:04.351Z,27.25
2023-07-29T06:41:07.016Z,28.09
2023-07-29T06:44:09.528Z,28.26
2023-07-29T06:47:11.826Z,28.28
2023-07-29T06:50:14.207Z,27.72
2023-07-29T06:53:16.547Z,27.48
2023-07-29T06:56:18.981Z,27.85
2023-07-29T06:59:21.389Z,26.99
2023-07-29T07:02:23.898Z,26.95
2023-07-29T07:05:26.281Z,26.11
2023-07-29T07:08:28.568Z,26.22
2023-07-29T07:11:30.854Z,26.29
2023-07-29T07:14:33.149Z,26.62
2023-07-29T07:17:35.482Z,26.98
2023-07-29T07:20:38.065Z,27.63
2023-07-29T07:23:40.755Z,28.17
2023-07-29T07:26:42.977Z,28.64
2023-07-29T07:29:45.264Z,28.31
2023-07-29T07:32:47.647Z,29.06
2023-07-29T07:35:49.986Z,30.00
2023-07-29T07:38:52.273Z,30.18
2023-07-29T07:41:54.550Z,30.78
2023-07-29T07:44:56.887Z,31.13
2023-07-29T07:47:59.223Z,31.87
2023-07-29T07:51:01.570Z,31.63
2023-07-29T07:54:03.834Z,31.88
2023-07-29T07:57:06.798Z,32.14
2023-07-29T08:00:10.818Z,30.40
2023-07-29T08:03:15.783Z,31.48
2023-07-29T08:06:18.055Z,31.67
2023-07-29T08:09:20.315Z,31.96
2023-07-29T08:12:22.631Z,31.98
2023-07-29T08:15:24.914Z,31.97
2023-07-29T08:18:27.229Z,31.44
2023-07-29T08:21:29.494Z,31.64
2023-07-29T08:24:31.813Z,32.64
2023-07-29T08:27:35.735Z,32.47
2023-07-29T08:30:38.023Z,33.77
2023-07-29T08:33:40.291Z,33.83
2023-07-29T08:36:42.594Z,34.53
2023-07-29T08:39:45.159Z,33.58
2023-07-29T08:42:48.651Z,31.92
2023-07-29T08:45:52.198Z,31.78
2023-07-29T08:48:55.903Z,32.98
2023-07-29T08:51:58.813Z,34.45
2023-07-29T08:55:01.529Z,35.17
2023-07-29T08:58:04.191Z,35.53
2023-07-29T09:01:07.294Z,34.32
2023-07-29T09:04:09.953Z,33.86
2023-07-29T09:07:13.000Z,33.73
2023-07-29T09:10:15.667Z,32.67
2023-07-29T09:13:18.024Z,33.63
2023-07-29T09:16:22.557Z,34.78
2023-07-29T09:19:28.353Z,34.25
2023-07-29T09:22:31.518Z,35.28
2023-07-29T09:25:33.805Z,35.71
2023-07-29T09:28:40.821Z,36.17
2023-07-29T09:31:43.165Z,36.26
2023-07-29T09:34:45.654Z,35.89
2023-07-29T09:37:48.918Z,36.78
2023-07-29T09:40:51.174Z,36.54
2023-07-29T09:43:58.824Z,37.17
2023-07-29T09:47:01.093Z,38.90
2023-07-29T09:50:03.406Z,39.97
2023-07-29T09:53:08.247Z,39.91
2023-07-29T09:56:11.226Z,40.31
2023-07-29T09:59:13.900Z,40.69
2023-07-29T10:02:17.737Z,40.63
2023-07-29T10:05:21.465Z,41.35
2023-07-29T10:08:25.718Z,41.50
2023-07-29T10:11:28.343Z,41.75
2023-07-29T10:14:32.022Z,41.90
2023-07-29T10:17:37.062Z,41.90
2023-07-29T10:20:41.300Z,41.56
2023-07-29T10:23:46.553Z,42.53
2023-07-29T10:26:51.151Z,42.42
2023-07-29T10:29:56.345Z,42.65
2023-07-29T10:33:07.770Z,42.42
2023-07-29T10:36:10.533Z,42.00
2023-07-29T10:39:13.964Z,42.16
2023-07-29T10:42:16.211Z,42.29
2023-07-29T10:45:22.375Z,42.04
2023-07-29T10:48:50.866Z,42.48
2023-07-29T10:51:54.500Z,41.76
2023-07-29T10:54:59.509Z,40.44
2023-07-29T10:58:15.334Z,38.57
2023-07-29T11:01:28.722Z,38.30
2023-07-29T11:04:32.283Z,37.15
2023-07-29T11:07:48.228Z,37.76
2023-07-29T11:11:09.494Z,40.07
2023-07-29T11:14:11.995Z,41.30
2023-07-29T11:17:15.267Z,42.29
2023-07-29T11:20:25.734Z,42.53
2023-07-29T11:23:36.087Z,41.98
2023-07-29T11:26:39.104Z,40.31
2023-07-29T11:29:41.491Z,40.52
2023-07-29T11:32:45.463Z,39.31
2023-07-29T11:35:47.825Z,38.29
2023-07-29T11:38:50.256Z,37.13
2023-07-29T11:41:52.582Z,36.57
2023-07-29T11:44:57.717Z,36.96
2023-07-29T11:48:01.947Z,36.06
2023-07-29T11:51:04.736Z,36.66
2023-07-29T11:54:07.469Z,36.20
2023-07-29T11:57:10.288Z,37.22
2023-07-29T12:00:14.096Z,37.58
2023-07-29T12:03:20.526Z,37.10
2023-07-29T12:06:25.659Z,37.97
2023-07-29T12:09:29.708Z,38.95
2023-07-29T12:12:32.145Z,39.10
2023-07-29T12:15:35.509Z,38.03
2023-07-29T12:18:37.868Z,38.20
2023-07-29T12:21:42.759Z,37.64
2023-07-29T12:24:45.145Z,36.80
2023-07-29T12:27:48.134Z,36.29
2023-07-29T12:30:57.102Z,35.28
2023-07-29T12:33:59.554Z,35.64
2023-07-29T12:37:04.097Z,35.28
2023-07-29T12:40:06.906Z,34.75
2023-07-29T12:43:09.271Z,35.29
2023-07-29T12:46:11.631Z,34.79
2023-07-29T12:49:17.295Z,34.57
2023-07-29T12:52:19.545Z,33.80
2023-07-29T12:55:23.893Z,33.95
2023-07-29T12:58:26.484Z,33.73
2023-07-29T13:01:29.578Z,34.17
2023-07-29T13:04:31.807Z,34.22
2023-07-29T13:07:34.155Z,33.92
2023-07-29T13:10:36.399Z,33.81
2023-07-29T13:13:38.806Z,33.44
2023-07-29T13:16:41.626Z,33.54
2023-07-29T13:19:44.139Z,33.45
2023-07-29T13:22:46.393Z,33.27
2023-07-29T13:25:48.652Z,32.62
2023-07-29T13:28:50.906Z,32.12
2023-07-29T13:31:53.308Z,32.30
2023-07-29T13:34:55.708Z,32.46
2023-07-29T13:37:57.946Z,32.52
2023-07-29T13:41:00.342Z,32.69
2023-07-29T13:44:02.669Z,32.93
2023-07-29T13:47:05.281Z,32.58
2023-07-29T13:50:11.031Z,32.16
2023-07-29T13:53:13.356Z,31.97
2023-07-29T13:56:15.590Z,31.92
2023-07-29T13:59:17.924Z,31.88
2023-07-29T14:02:20.285Z,31.63
2023-07-29T14:05:22.552Z,31.77
2023-07-29T14:08:24.914Z,31.86
2023-07-29T14:11:27.135Z,31.92
2023-07-29T14:14:29.413Z,31.67
2023-07-29T14:17:32.673Z,31.24
2023-07-29T14:20:35.148Z,31.11
2023-07-29T14:23:37.450Z,31.34
2023-07-29T14:26:39.803Z,31.43
2023-07-29T14:29:42.103Z,31.56
2023-07-29T14:32:44.378Z,31.66
2023-07-29T14:35:46.800Z,31.41
2023-07-29T14:38:49.109Z,31.26
2023-07-29T14:41:51.432Z,31.26
2023-07-29T14:44:54.108Z,31.23
2023-07-29T14:47:56.464Z,30.97
2023-07-29T14:50:58.873Z,31.31
2023-07-29T14:54:01.135Z,31.48
2023-07-29T14:57:03.896Z,31.46
2023-07-29T15:00:07.235Z,31.27
2023-07-29T15:03:09.561Z,31.01
2023-07-29T15:06:11.923Z,30.79
2023-07-29T15:09:14.204Z,30.61
2023-07-29T15:12:16.573Z,30.57
2023-07-29T15:15:19.013Z,30.38
2023-07-29T15:18:21.268Z,30.35
2023-07-29T15:21:24.102Z,30.20
2023-07-29T15:24:26.362Z,30.13
2023-07-29T15:27:29.949Z,30.32
2023-07-29T15:30:32.260Z,30.11
2023-07-29T15:33:35.706Z,30.16
2023-07-29T15:36:39.310Z,30.20
2023-07-29T15:39:43.006Z,30.01
2023-07-29T15:42:45.489Z,29.90
2023-07-29T15:45:47.852Z,29.92
2023-07-29T15:48:50.131Z,29.72
2023-07-29T15:51:52.626Z,29.36
2023-07-29T15:54:56.126Z,29.36
2023-07-29T15:57:58.540Z,29.38
2023-07-29T16:01:00.833Z,29.37
2023-07-29T16:04:03.350Z,29.16
2023-07-29T16:07:06.035Z,29.14
2023-07-29T16:10:09.892Z,28.95
2023-07-29T16:13:14.127Z,28.88
2023-07-29T16:16:16.479Z,28.77
2023-07-29T16:19:25.549Z,28.74
2023-07-29T16:22:28.077Z,28.66
2023-07-29T16:25:30.333Z,28.45
2023-07-29T16:28:32.853Z,28.53
2023-07-29T16:31:36.122Z,28.58
2023-07-29T16:34:39.724Z,28.44
2023-07-29T16:37:42.045Z,28.44
2023-07-29T16:40:57.701Z,28.46
2023-07-29T16:44:06.594Z,28.52
2023-07-29T16:47:08.918Z,28.47
2023-07-29T16:50:11.390Z,28.44
2023-07-29T16:53:13.720Z,28.27
2023-07-29T16:56:16.036Z,28.28
2023-07-29T16:59:18.621Z,28.19
2023-07-29T17:02:20.959Z,28.14
2023-07-29T17:05:23.220Z,28.15
2023-07-29T17:08:25.598Z,28.10
2023-07-29T17:11:28.038Z,28.03
2023-07-29T17:14:30.408Z,27.94
2023-07-29T17:17:32.769Z,27.94
2023-07-29T17:20:35.072Z,27.83
2023-07-29T17:23:37.298Z,27.81
2023-07-29T17:26:39.643Z,27.67
2023-07-29T17:29:43.093Z,27.57
2023-07-29T17:32:45.441Z,27.48
2023-07-29T17:35:47.758Z,27.47
2023-07-29T17:38:50.192Z,27.40
2023-07-29T17:41:52.710Z,27.23
2023-07-29T17:44:55.068Z,27.18
2023-07-29T17:47:57.480Z,27.12
2023-07-29T17:50:59.777Z,27.07
2023-07-29T17:54:02.047Z,26.89
2023-07-29T17:57:04.667Z,26.82
2023-07-29T18:00:07.635Z,26.71
2023-07-29T18:03:10.026Z,26.56
2023-07-29T18:06:14.414Z,26.42
2023-07-29T18:09:16.683Z,26.34
2023-07-29T18:12:18.951Z,26.30
2023-07-29T18:15:21.229Z,26.21
2023-07-29T18:18:23.652Z,26.10
2023-07-29T18:21:26.036Z,26.06
2023-07-29T18:24:28.346Z,25.92
2023-07-29T18:27:32.769Z,25.86
2023-07-29T18:30:35.643Z,25.77
2023-07-29T18:33:37.988Z,25.77
2023-07-29T18:36:42.083Z,25.69
2023-07-29T18:39:46.558Z,25.60
2023-07-29T18:42:48.765Z,25.37
2023-07-29T18:45:51.318Z,25.27
2023-07-29T18:48:59.978Z,25.07
2023-07-29T18:52:02.497Z,25.04
2023-07-29T18:55:05.129Z,25.10
2023-07-29T18:58:07.445Z,25.10
2023-07-29T19:01:12.008Z,24.99
2023-07-29T19:04:15.989Z,24.83
2023-07-29T19:07:20.073Z,24.81
2023-07-29T19:10:22.594Z,24.73
2023-07-29T19:13:25.557Z,24.60
2023-07-29T19:16:38.691Z,24.46
2023-07-29T19:19:42.269Z,24.37
2023-07-29T19:22:44.868Z,24.33
2023-07-29T19:25:47.879Z,24.23
2023-07-29T19:28:57.638Z,24.18
2023-07-29T19:32:00.820Z,24.15
2023-07-29T19:35:05.241Z,24.10
2023-07-29T19:38:07.845Z,24.08
2023-07-29T19:41:13.418Z,23.94
2023-07-29T19:44:22.432Z,23.84
2023-07-29T19:47:25.562Z,23.80
2023-07-29T19:50:33.755Z,23.71
2023-07-29T19:53:44.058Z,23.65
2023-07-29T19:56:47.671Z,23.46
2023-07-29T19:59:50.858Z,23.26
2023-07-29T20:02:53.411Z,23.07
2023-07-29T20:05:56.280Z,23.10
2023-07-29T20:08:59.133Z,22.93
2023-07-29T20:12:02.902Z,22.92
2023-07-29T20:15:07.574Z,22.93
2023-07-29T20:18:10.245Z,22.84
2023-07-29T20:21:12.672Z,22.93
2023-07-29T20:24:16.264Z,22.87
2023-07-29T20:27:18.539Z,22.86
2023-07-29T20:30:20.962Z,22.88
2023-07-29T20:33:25.325Z,22.88
2023-07-29T20:36:30.543Z,22.89
2023-07-29T20:39:32.813Z,22.80
2023-07-29T20:42:37.598Z,22.80
2023-07-29T20:45:39.938Z,22.79
2023-07-29T20:48:42.235Z,22.68
2023-07-29T20:51:44.495Z,22.66
2023-07-29T20:54:46.783Z,22.56
2023-07-29T20:57:49.087Z,22.50
2023-07-29T21:00:54.899Z,22.49
2023-07-29T21:03:57.613Z,22.51
2023-07-29T21:07:01.235Z,22.44
2023-07-29T21:10:03.747Z,22.40
2023-07-29T21:13:06.062Z,22.33
2023-07-29T21:16:08.572Z,22.34
2023-07-29T21:19:10.873Z,22.24
2023-07-29T21:22:13.146Z,22.14
2023-07-29T21:25:15.554Z,22.05
2023-07-29T21:28:19.453Z,22.02
2023-07-29T21:31:21.861Z,21.93
2023-07-29T21:34:24.108Z,21.87
2023-07-29T21:37:35.859Z,21.83
2023-07-29T21:40:39.100Z,21.77
2023-07-29T21:43:41.425Z,21.71
2023-07-29T21:46:43.686Z,21.72
2023-07-29T21:49:46.060Z,21.62
2023-07-29T21:52:48.421Z,21.61
2023-07-29T21:55:52.745Z,21.65
2023-07-29T21:58:55.061Z,21.64
2023-07-29T22:01:57.297Z,21.58
2023-07-29T22:04:59.539Z,21.54
2023-07-29T22:08:04.224Z,21.58
2023-07-29T22:11:10.339Z,21.60
2023-07-29T22:14:12.663Z,21.55
2023-07-29T22:17:14.968Z,21.53
2023-07-29T22:20:17.287Z,21.52
2023-07-29T22:23:19.520Z,21.48
2023-07-29T22:26:21.779Z,21.52
2023-07-29T22:29:24.017Z,21.46
2023-07-29T22:32:26.706Z,21.48
2023-07-29T22:35:29.054Z,21.57
2023-07-29T22:38:31.412Z,21.63
2023-07-29T22:41:33.708Z,21.68
2023-07-29T22:44:35.985Z,21.61
2023-07-29T22:47:38.355Z,21.55
2023-07-29T22:50:40.706Z,21.48
2023-07-29T22:53:42.964Z,21.41
2023-07-29T22:56:45.292Z,21.40
2023-07-29T22:59:47.661Z,21.43
2023-07-29T23:02:49.992Z,21.42
2023-07-29T23:05:52.625Z,21.37
2023-07-29T23:08:55.007Z,21.34
2023-07-29T23:11:57.298Z,21.29
2023-07-29T23:14:59.554Z,21.28
2023-07-29T23:18:02.215Z,21.32
2023-07-29T23:21:04.556Z,21.21
2023-07-29T23:24:06.812Z,21.21
2023-07-29T23:27:09.088Z,21.16
2023-07-29T23:30:11.852Z,21.06
2023-07-29T23:33:14.148Z,21.11
2023-07-29T23:36:16.467Z,21.10
2023-07-29T23:39:18.705Z,21.06
2023-07-29T23:42:20.992Z,21.08
2023-07-29T23:45:23.381Z,21.12
2023-07-29T23:48:25.651Z,21.19
2023-07-29T23:51:27.892Z,21.23
2023-07-29T23:54:30.192Z,21.26
2023-07-29T23:57:32.540Z,21.26
